MJCBC EGLW-EGLW

Flight info

Callsign MJCBC
Flight time N/A
Altitude 5000
Route XXX
Aircraft A139/L-V/N

Departure

Time 2026-04-16 12:35
Airport London Heliport (EGLW)

Arrival

Time N/A
Airport London Heliport (EGLW)
Time Latitude Longitude Altitude Speed Heading
2026-04-16 12:27 51.46993 -0.17954 22 ft 0 kts
2026-04-16 12:33 51.47007 -0.17951 30 ft 2 kts 231°
2026-04-16 12:33 51.46888 -0.18108 137 ft 54 kts 235°
2026-04-16 12:34 51.46509 -0.18866 182 ft 111 kts 244°
2026-04-16 12:34 51.46500 -0.20365 470 ft 156 kts 282°
2026-04-16 12:34 51.47065 -0.21936 399 ft 174 kts 315°
2026-04-16 12:34 51.48212 -0.22538 292 ft 176 kts 346°
2026-04-16 12:35 51.49125 -0.23656 446 ft 159 kts 309°
2026-04-16 12:35 51.50103 -0.24464 790 ft 150 kts 332°
2026-04-16 12:35 51.51045 -0.25077 1077 ft 152 kts 333°
2026-04-16 12:35 51.52009 -0.25682 1450 ft 139 kts 328°
2026-04-16 12:36 51.52875 -0.26420 1321 ft 148 kts 320°
2026-04-16 12:36 51.53599 -0.27555 1351 ft 145 kts 298°
2026-04-16 12:36 51.54219 -0.28802 1342 ft 149 kts 315°
2026-04-16 12:36 51.55101 -0.29594 1639 ft 150 kts 331°
2026-04-16 12:37 51.56031 -0.30273 1968 ft 160 kts 332°
2026-04-16 12:37 51.57059 -0.30975 1972 ft 168 kts 329°
2026-04-16 12:37 51.58082 -0.31902 1915 ft 168 kts 318°
2026-04-16 12:37 51.58864 -0.33227 1888 ft 164 kts 298°
2026-04-16 12:38 51.59462 -0.34763 1929 ft 162 kts 303°
2026-04-16 12:38 51.60226 -0.36122 1896 ft 165 kts 306°
2026-04-16 12:38 51.60986 -0.37535 1791 ft 168 kts 303°
2026-04-16 12:38 51.61733 -0.38991 1729 ft 165 kts 300°
2026-04-16 12:39 51.62239 -0.40613 1659 ft 165 kts 288°
2026-04-16 12:39 51.62967 -0.42126 1764 ft 180 kts 313°
2026-04-16 12:39 51.63792 -0.43420 1881 ft 157 kts 307°
2026-04-16 12:39 51.64628 -0.44603 1798 ft 165 kts 316°
2026-04-16 12:40 51.65537 -0.45736 1881 ft 162 kts 313°
2026-04-16 12:40 51.66386 -0.46996 1817 ft 165 kts 306°
2026-04-16 12:40 51.67139 -0.48345 1842 ft 168 kts 319°
2026-04-16 12:40 51.68001 -0.49446 1822 ft 162 kts 315°
2026-04-16 12:41 51.69001 -0.50683 1768 ft 196 kts 326°
2026-04-16 12:41 51.70115 -0.52065 1788 ft 209 kts 324°
2026-04-16 12:41 51.71379 -0.53337 1853 ft 211 kts 327°
2026-04-16 12:41 51.72501 -0.54426 1801 ft 176 kts 321°
2026-04-16 12:42 51.73521 -0.55436 1773 ft 173 kts 327°
2026-04-16 12:42 51.74490 -0.56467 1773 ft 169 kts 317°
2026-04-16 12:42 51.75310 -0.57781 1789 ft 164 kts 303°
2026-04-16 12:42 51.76017 -0.59174 1715 ft 159 kts 301°
2026-04-16 12:43 51.76651 -0.60627 1834 ft 157 kts 298°
2026-04-16 12:43 51.77280 -0.62097 1803 ft 162 kts 299°
2026-04-16 12:43 51.77753 -0.63680 1772 ft 159 kts 275°
2026-04-16 12:43 51.77651 -0.65489 1788 ft 167 kts 259°
2026-04-16 12:44 51.77631 -0.67436 1738 ft 186 kts 287°
2026-04-16 12:44 51.78142 -0.69360 1826 ft 185 kts 289°
2026-04-16 12:44 51.78703 -0.71195 1694 ft 185 kts 288°
2026-04-16 12:44 51.79299 -0.73018 1677 ft 192 kts 300°
2026-04-16 12:45 51.80080 -0.74923 1498 ft 213 kts 304°
2026-04-16 12:45 51.80989 -0.76865 1240 ft 219 kts 310°
2026-04-16 12:45 51.82162 -0.78386 1353 ft 216 kts 332°
2026-04-16 12:45 51.83395 -0.79720 1449 ft 212 kts 319°
2026-04-16 12:46 51.84284 -0.81519 1561 ft 206 kts 289°
2026-04-16 12:46 51.84546 -0.83655 1593 ft 182 kts 282°
2026-04-16 12:46 51.84752 -0.85446 1629 ft 160 kts 283°
2026-04-16 12:46 51.85101 -0.87326 1666 ft 188 kts 293°
2026-04-16 12:47 51.85709 -0.89330 1650 ft 207 kts 297°
2026-04-16 12:47 51.86301 -0.91440 1668 ft 198 kts 289°
2026-04-16 12:47 51.86709 -0.93503 1719 ft 193 kts 279°
2026-04-16 12:47 51.86989 -0.95641 1781 ft 196 kts 284°
2026-04-16 12:48 51.87415 -0.97797 1648 ft 207 kts 291°
2026-04-16 12:48 51.88003 -0.99986 1308 ft 217 kts 293°
2026-04-16 12:48 51.88538 -1.02184 1551 ft 202 kts 283°
2026-04-16 12:48 51.88782 -1.04397 1290 ft 213 kts 281°
2026-04-16 12:49 51.88790 -1.06768 614 ft 211 kts 259°
2026-04-16 12:49 51.88341 -1.08983 715 ft 204 kts 257°
2026-04-16 12:49 51.88124 -1.11213 891 ft 198 kts 266°
2026-04-16 12:49 51.88082 -1.13253 1302 ft 173 kts 268°
2026-04-16 12:50 51.87894 -1.15430 1052 ft 203 kts 267°
2026-04-16 12:50 51.87752 -1.17687 1198 ft 200 kts 264°
2026-04-16 12:50 51.87544 -1.19877 1468 ft 191 kts 261°
2026-04-16 12:50 51.87111 -1.21877 1525 ft 189 kts 249°
2026-04-16 12:51 51.86560 -1.23801 1668 ft 189 kts 245°
2026-04-16 12:51 51.85862 -1.25677 1614 ft 197 kts 238°
2026-04-16 12:51 51.85190 -1.27460 1318 ft 183 kts 240°
2026-04-16 12:51 51.84658 -1.28945 1487 ft 137 kts 232°
2026-04-16 12:52 51.84237 -1.30176 1566 ft 117 kts 238°
2026-04-16 12:52 51.83944 -1.30790 1816 ft 66 kts 176°
2026-04-16 12:52 51.83939 -1.30411 1577 ft 95 kts 334°
2026-04-16 12:52 51.84065 -1.31613 450 ft 123 kts 232°
2026-04-16 12:53 51.83687 -1.31603 609 ft 42 kts 129°
2026-04-16 12:53 51.83570 -1.31450 475 ft 27 kts 183°
2026-04-16 12:53 51.83480 -1.31353 296 ft 11 kts 207°
2026-04-16 12:53 51.83434 -1.31324 264 ft 2 kts 288°
2026-04-16 12:54 51.83425 -1.31335 252 ft 2 kts 298°
2026-04-16 12:54 51.83428 -1.31344 248 ft 0 kts 275°
2026-04-16 12:59 51.83429 -1.31344 248 ft 0 kts 276°
2026-04-16 12:59 51.83256 -1.31556 299 ft 98 kts 202°
2026-04-16 12:59 51.82534 -1.30638 335 ft 170 kts 146°
2026-04-16 13:00 51.80682 -1.27305 228 ft 219 kts 126°
2026-04-16 13:00 51.79773 -1.25407 256 ft 205 kts 156°
2026-04-16 13:00 51.78593 -1.24080 251 ft 214 kts 155°
2026-04-16 13:00 51.77313 -1.22855 213 ft 196 kts 142°